Lihue Airport Lihue US
ICAO: PHLI
IATA:
Category: Medium
Scheduled Services:

Elevation: 153 ft
TransAlt. 18000 ft.

Airport Communications:
ATIS:127.2
HONOLULU CNTR:126.5
CTAF:118.9
GND:121.9
HONOLULU:122.6
TWR:118.9

PHLI Zoom In..

Runways:

(A) RW 03 length 6500 ft width 150 ft
---- / hdg 34

(B) RW 17 length 6500 ft width 150 ft
---- / hdg 169

(C) RW 21 length 6500 ft width 150 ft
---- / hdg 214

(D) RW 35 length 6500 ft width 150 ft
ILS 110.90 / hdg 349

Location; PHLI
Day. 26 / Time. 04.17 Zulu
* Altimeter: 30.12
* Temperature: 23° c. 73.4°f.
* Wind from: 050° Speed 13 kn.
Dewpoint: 22° c.
Visibility: 10 Statute Miles.
Clouds: Broken 1400 ft.
Clouds: Broken 4100 ft.
Clouds: Overcast 4800 ft.

PHLI 260417Z 05013KT 10SM BKN014 BKN041 OVC048 23/22 A3012 RMK AO2 T02330217


Wind From 050°
Speed 13 kn.

 
 
jpsmedia.com for Web Design SOUNDCLOUD worldairports.se 2018   terms of use